createdAt,value
2023-04-26T00:02:18.318Z,100824.00
2023-04-26T00:04:47.302Z,100816.00
2023-04-26T00:07:16.561Z,100824.00
2023-04-26T00:09:44.824Z,100825.00
2023-04-26T00:12:12.863Z,100829.00
2023-04-26T00:14:40.673Z,100835.00
2023-04-26T00:17:08.412Z,100821.00
2023-04-26T00:19:38.565Z,100823.00
2023-04-26T00:22:06.616Z,100813.00
2023-04-26T00:24:34.535Z,100832.00
2023-04-26T00:27:05.307Z,100819.00
2023-04-26T00:29:33.024Z,100835.00
2023-04-26T00:32:00.954Z,100825.00
2023-04-26T00:34:33.526Z,100819.00
2023-04-26T00:37:03.397Z,100820.00
2023-04-26T00:39:31.443Z,100828.00
2023-04-26T00:41:59.319Z,100821.00
2023-04-26T00:44:27.055Z,100825.00
2023-04-26T00:46:55.821Z,100823.00
2023-04-26T00:49:25.930Z,100804.00
2023-04-26T00:51:54.072Z,100819.00
2023-04-26T00:54:23.469Z,100823.00
2023-04-26T00:56:53.220Z,100833.00
2023-04-26T00:59:21.572Z,100832.00
2023-04-26T01:01:49.564Z,100830.00
2023-04-26T01:04:18.236Z,100820.00
2023-04-26T01:06:46.959Z,100828.00
2023-04-26T01:09:15.526Z,100839.00
2023-04-26T01:11:45.636Z,100830.00
2023-04-26T01:14:14.106Z,100837.00
2023-04-26T01:16:41.937Z,100807.00
2023-04-26T01:19:12.547Z,100835.00
2023-04-26T01:21:41.075Z,100844.00
2023-04-26T01:24:10.665Z,100844.00
2023-04-26T01:26:43.972Z,100832.00
2023-04-26T01:29:16.189Z,100844.00
2023-04-26T01:31:44.138Z,100830.00
2023-04-26T01:34:11.929Z,100844.00
2023-04-26T01:36:39.791Z,100846.00
2023-04-26T01:39:09.209Z,100838.00
2023-04-26T01:41:38.611Z,100838.00
2023-04-26T01:44:06.618Z,100833.00
2023-04-26T01:46:34.522Z,100844.00
2023-04-26T01:49:02.304Z,100847.00
2023-04-26T01:51:29.973Z,100852.00
2023-04-26T01:53:57.662Z,100837.00
2023-04-26T01:56:25.662Z,100853.00
2023-04-26T01:58:56.265Z,100847.00
2023-04-26T02:01:24.262Z,100843.00
2023-04-26T02:03:52.150Z,100853.00
2023-04-26T02:06:19.856Z,100853.00
2023-04-26T02:08:47.661Z,100843.00
2023-04-26T02:11:15.338Z,100846.00
2023-04-26T02:13:43.272Z,100851.00
2023-04-26T02:16:12.416Z,100855.00
2023-04-26T02:18:41.675Z,100848.00
2023-04-26T02:21:10.095Z,100852.00
2023-04-26T02:23:37.805Z,100851.00
2023-04-26T02:26:05.985Z,100838.00
2023-04-26T02:28:33.689Z,100851.00
2023-04-26T02:31:03.155Z,100847.00
2023-04-26T02:33:32.306Z,100860.00
2023-04-26T02:36:00.126Z,100852.00
2023-04-26T02:38:28.012Z,100852.00
2023-04-26T02:40:59.771Z,100856.00
2023-04-26T02:43:27.718Z,100860.00
2023-04-26T02:45:55.577Z,100867.00
2023-04-26T02:48:23.296Z,100855.00
2023-04-26T02:50:52.567Z,100852.00
2023-04-26T02:53:20.836Z,100863.00
2023-04-26T02:55:48.599Z,100847.00
2023-04-26T02:58:17.394Z,100853.00
2023-04-26T03:00:48.316Z,100837.00
2023-04-26T03:03:16.765Z,100862.00
2023-04-26T03:05:44.732Z,100850.00
2023-04-26T03:08:13.732Z,100851.00
2023-04-26T03:10:41.429Z,100851.00
2023-04-26T03:13:09.280Z,100850.00
2023-04-26T03:15:36.999Z,100852.00
2023-04-26T03:18:04.917Z,100844.00
2023-04-26T03:20:32.738Z,100844.00
2023-04-26T03:23:00.437Z,100854.00
2023-04-26T03:25:29.589Z,100852.00
2023-04-26T03:27:57.395Z,100812.00
2023-04-26T03:30:25.078Z,100848.00
2023-04-26T03:32:53.808Z,100848.00
2023-04-26T03:35:21.822Z,100848.00
2023-04-26T03:37:51.166Z,100844.00
2023-04-26T03:40:20.385Z,100839.00
2023-04-26T03:42:49.478Z,100847.00
2023-04-26T03:45:17.246Z,100830.00
2023-04-26T03:47:44.974Z,100850.00
2023-04-26T03:50:13.118Z,100850.00
2023-04-26T03:52:40.926Z,100846.00
2023-04-26T03:55:11.820Z,100844.00
2023-04-26T03:57:39.622Z,100862.00
2023-04-26T04:00:12.497Z,100848.00
2023-04-26T04:02:40.498Z,100852.00
2023-04-26T04:05:09.239Z,100854.00
2023-04-26T04:07:37.449Z,100857.00
2023-04-26T04:10:05.638Z,100864.00
2023-04-26T04:12:33.329Z,100859.00
2023-04-26T04:15:01.321Z,100852.00
2023-04-26T04:17:30.475Z,100863.00
2023-04-26T04:19:58.297Z,100862.00
2023-04-26T04:22:26.138Z,100866.00
2023-04-26T04:24:54.380Z,100867.00
2023-04-26T04:27:22.735Z,100875.00
2023-04-26T04:29:50.430Z,100861.00
2023-04-26T04:32:18.713Z,100857.00
2023-04-26T04:34:49.484Z,100864.00
2023-04-26T04:37:18.164Z,100858.00
2023-04-26T04:39:46.195Z,100864.00
2023-04-26T04:42:14.041Z,100874.00
2023-04-26T04:44:43.051Z,100872.00
2023-04-26T04:47:10.840Z,100868.00
2023-04-26T04:49:38.707Z,100874.00
2023-04-26T04:52:07.978Z,100870.00
2023-04-26T04:54:35.789Z,100872.00
2023-04-26T04:57:04.040Z,100873.00
2023-04-26T04:59:33.254Z,100863.00
2023-04-26T05:02:01.637Z,100878.00
2023-04-26T05:04:29.560Z,100870.00
2023-04-26T05:06:57.586Z,100879.00
2023-04-26T05:09:27.585Z,100887.00
2023-04-26T05:11:55.305Z,100875.00
2023-04-26T05:14:23.108Z,100874.00
2023-04-26T05:16:51.051Z,100881.00
2023-04-26T05:19:18.841Z,100871.00
2023-04-26T05:21:46.650Z,100883.00
2023-04-26T05:24:14.349Z,100883.00
2023-04-26T05:26:43.593Z,100881.00
2023-04-26T05:29:11.408Z,100854.00
2023-04-26T05:31:39.267Z,100870.00
2023-04-26T05:34:07.145Z,100893.00
2023-04-26T05:36:35.568Z,100904.00
2023-04-26T05:39:05.690Z,100882.00
2023-04-26T05:41:33.489Z,100898.00
2023-04-26T05:44:02.578Z,100904.00
2023-04-26T05:46:30.556Z,100899.00
2023-04-26T05:48:58.274Z,100904.00
2023-04-26T05:51:26.290Z,100896.00
2023-04-26T05:53:54.886Z,100904.00
2023-04-26T05:56:24.059Z,100905.00
2023-04-26T05:58:51.838Z,100891.00
2023-04-26T06:01:21.131Z,100901.00
2023-04-26T06:03:49.413Z,100901.00
2023-04-26T06:06:18.492Z,100890.00
2023-04-26T06:08:46.555Z,100904.00
2023-04-26T06:11:14.386Z,100901.00
2023-04-26T06:13:42.594Z,100892.00
2023-04-26T06:16:10.452Z,100906.00
2023-04-26T06:18:39.587Z,100909.00
2023-04-26T06:21:08.010Z,100906.00
2023-04-26T06:23:35.743Z,100910.00
2023-04-26T06:26:03.466Z,100889.00
2023-04-26T06:28:31.555Z,100909.00
2023-04-26T06:30:59.572Z,100908.00
2023-04-26T06:33:27.579Z,100906.00
2023-04-26T06:35:56.642Z,100906.00
2023-04-26T06:38:24.441Z,100910.00
2023-04-26T06:40:52.225Z,100910.00
2023-04-26T06:43:19.926Z,100913.00
2023-04-26T06:45:48.635Z,100917.00
2023-04-26T06:48:16.379Z,100901.00
2023-04-26T06:50:44.176Z,100912.00
2023-04-26T06:53:13.266Z,100915.00
2023-04-26T06:55:40.969Z,100920.00
2023-04-26T06:58:08.865Z,100919.00
2023-04-26T07:00:36.725Z,100914.00
2023-04-26T07:03:04.649Z,100914.00
2023-04-26T07:05:32.605Z,100920.00
2023-04-26T07:08:00.366Z,100916.00
2023-04-26T07:10:29.711Z,100923.00
2023-04-26T07:12:57.722Z,100920.00
2023-04-26T07:15:25.649Z,100931.00
2023-04-26T07:17:53.495Z,100927.00
2023-04-26T07:20:23.574Z,100941.00
2023-04-26T07:22:51.732Z,100935.00
2023-04-26T07:25:19.591Z,100938.00
2023-04-26T07:27:51.593Z,100930.00
2023-04-26T07:30:19.318Z,100937.00
2023-04-26T07:32:47.175Z,100927.00
2023-04-26T07:35:16.333Z,100939.00
2023-04-26T07:37:45.031Z,100931.00
2023-04-26T07:40:13.997Z,100937.00
2023-04-26T07:42:41.827Z,100939.00
2023-04-26T07:45:12.445Z,100929.00
2023-04-26T07:47:40.197Z,100935.00
2023-04-26T07:50:09.556Z,100938.00
2023-04-26T07:52:37.291Z,100937.00
2023-04-26T07:55:05.482Z,100952.00
2023-04-26T07:57:33.242Z,100939.00
2023-04-26T08:00:01.694Z,100934.00
2023-04-26T08:02:43.596Z,100941.00
2023-04-26T08:05:12.322Z,100936.00
2023-04-26T08:07:40.362Z,100942.00
2023-04-26T08:10:09.047Z,100945.00
2023-04-26T08:12:38.182Z,100924.00
2023-04-26T08:15:07.399Z,100951.00
2023-04-26T08:17:36.876Z,100936.00
2023-04-26T08:20:06.490Z,100946.00
2023-04-26T08:22:34.228Z,100937.00
2023-04-26T08:25:02.083Z,100942.00
2023-04-26T08:27:29.926Z,100949.00
2023-04-26T08:29:57.785Z,100937.00
2023-04-26T08:32:25.841Z,100934.00
2023-04-26T08:34:55.367Z,100933.00
2023-04-26T08:37:23.635Z,100940.00
2023-04-26T08:39:51.609Z,100943.00
2023-04-26T08:42:19.361Z,100929.00
2023-04-26T08:44:47.250Z,100938.00
2023-04-26T08:47:18.196Z,100933.00
2023-04-26T08:49:47.758Z,100936.00
2023-04-26T08:52:22.735Z,100942.00
2023-04-26T08:54:54.955Z,100932.00
2023-04-26T08:57:23.599Z,100945.00
2023-04-26T08:59:52.744Z,100941.00
2023-04-26T09:02:22.337Z,100939.00
2023-04-26T09:04:51.327Z,100939.00
2023-04-26T09:07:23.354Z,100941.00
2023-04-26T09:09:52.104Z,100937.00
2023-04-26T09:12:21.614Z,100943.00
2023-04-26T09:14:49.524Z,100933.00
2023-04-26T09:17:27.744Z,100931.00
2023-04-26T09:19:55.906Z,100937.00
2023-04-26T09:22:33.639Z,100929.00
2023-04-26T09:25:03.828Z,100943.00
2023-04-26T09:27:36.356Z,100931.00
2023-04-26T09:30:10.494Z,100931.00
2023-04-26T09:32:47.871Z,100949.00
2023-04-26T09:35:28.860Z,100935.00
2023-04-26T09:38:04.725Z,100936.00
2023-04-26T09:40:38.313Z,100933.00
2023-04-26T09:43:08.226Z,100945.00
2023-04-26T09:45:45.901Z,100933.00
2023-04-26T09:48:16.610Z,100936.00
2023-04-26T09:50:46.660Z,100937.00
2023-04-26T09:53:34.347Z,100940.00
2023-04-26T09:56:10.013Z,100947.00
2023-04-26T09:58:38.718Z,100961.00
2023-04-26T10:01:08.802Z,100950.00
2023-04-26T10:03:37.748Z,100949.00
2023-04-26T10:06:06.621Z,100940.00
2023-04-26T10:08:36.545Z,100955.00
2023-04-26T10:11:07.422Z,100950.00
2023-04-26T10:13:36.669Z,100966.00
2023-04-26T10:16:05.114Z,100956.00
2023-04-26T10:18:33.664Z,100964.00
2023-04-26T10:21:06.611Z,100960.00
2023-04-26T10:23:36.245Z,100959.00
2023-04-26T10:26:04.133Z,100959.00
2023-04-26T10:29:05.295Z,100946.00
2023-04-26T10:32:06.644Z,100942.00
2023-04-26T10:34:36.462Z,100944.00
2023-04-26T10:37:14.782Z,100945.00
2023-04-26T10:39:45.047Z,100949.00
2023-04-26T10:42:24.018Z,100949.00
2023-04-26T10:44:52.896Z,100939.00
2023-04-26T10:47:38.883Z,100943.00
2023-04-26T10:50:09.248Z,100934.00
2023-04-26T10:52:57.997Z,100926.00
2023-04-26T10:55:39.816Z,100944.00
2023-04-26T10:58:28.644Z,100933.00
2023-04-26T11:01:17.765Z,100944.00
2023-04-26T11:04:06.719Z,100948.00
2023-04-26T11:06:49.498Z,100937.00
2023-04-26T11:09:37.552Z,100939.00
2023-04-26T11:12:08.223Z,100937.00
2023-04-26T11:14:35.958Z,100940.00
2023-04-26T11:17:08.665Z,100938.00
2023-04-26T11:19:36.890Z,100928.00
2023-04-26T11:22:07.682Z,100926.00
2023-04-26T11:24:36.916Z,100930.00
2023-04-26T11:27:11.608Z,100940.00
2023-04-26T11:29:40.641Z,100934.00
2023-04-26T11:32:10.879Z,100936.00
2023-04-26T11:34:40.606Z,100942.00
2023-04-26T11:37:09.004Z,100947.00
2023-04-26T11:39:38.215Z,100942.00
2023-04-26T11:42:07.124Z,100934.00
2023-04-26T11:44:37.325Z,100925.00
2023-04-26T11:47:06.510Z,100920.00
2023-04-26T11:49:36.621Z,100933.00
2023-04-26T11:52:05.246Z,100930.00
2023-04-26T11:54:34.699Z,100924.00
2023-04-26T11:57:16.731Z,100932.00
2023-04-26T11:59:46.853Z,100932.00
2023-04-26T12:02:14.834Z,100929.00
2023-04-26T12:04:44.331Z,100927.00
2023-04-26T12:07:12.299Z,100938.00
2023-04-26T12:09:42.601Z,100929.00
2023-04-26T12:12:12.174Z,100918.00
2023-04-26T12:14:42.377Z,100933.00
2023-04-26T12:17:11.543Z,100942.00
2023-04-26T12:19:41.690Z,100943.00
2023-04-26T12:22:10.145Z,100939.00
2023-04-26T12:24:38.149Z,100939.00
2023-04-26T12:27:07.620Z,100936.00
2023-04-26T12:29:36.399Z,100928.00
2023-04-26T12:32:04.755Z,100949.00
2023-04-26T12:34:36.780Z,100942.00
2023-04-26T12:37:05.375Z,100920.00
2023-04-26T12:39:33.184Z,100935.00
2023-04-26T12:42:01.712Z,100926.00
2023-04-26T12:44:29.656Z,100935.00
2023-04-26T12:46:57.452Z,100951.00
2023-04-26T12:49:25.292Z,100942.00
2023-04-26T12:51:54.582Z,100935.00
2023-04-26T12:54:22.286Z,100944.00
2023-04-26T12:56:50.202Z,100948.00
2023-04-26T12:59:18.086Z,100948.00
2023-04-26T13:01:45.835Z,100942.00
2023-04-26T13:04:13.786Z,100946.00
2023-04-26T13:06:41.837Z,100944.00
2023-04-26T13:09:13.178Z,100954.00
2023-04-26T13:11:41.224Z,100941.00
2023-04-26T13:14:09.149Z,100952.00
2023-04-26T13:16:39.702Z,100950.00
2023-04-26T13:19:07.700Z,100945.00
2023-04-26T13:21:35.562Z,100937.00
2023-04-26T13:24:03.360Z,100951.00
2023-04-26T13:26:32.482Z,100953.00
2023-04-26T13:29:00.371Z,100943.00
2023-04-26T13:31:28.443Z,100954.00
2023-04-26T13:33:56.363Z,100952.00
2023-04-26T13:36:24.429Z,100946.00
2023-04-26T13:38:52.617Z,100941.00
2023-04-26T13:41:20.517Z,100954.00
2023-04-26T13:43:50.145Z,100952.00
2023-04-26T13:46:17.895Z,100917.00
2023-04-26T13:48:46.688Z,100942.00
2023-04-26T13:51:15.364Z,100962.00
2023-04-26T13:53:43.146Z,100957.00
2023-04-26T13:56:11.227Z,100938.00
2023-04-26T13:58:39.123Z,100958.00
2023-04-26T14:01:08.330Z,100974.00
2023-04-26T14:03:36.759Z,100959.00
2023-04-26T14:06:05.757Z,100958.00
2023-04-26T14:08:33.593Z,100969.00
2023-04-26T14:11:01.678Z,100970.00
2023-04-26T14:13:29.525Z,100965.00
2023-04-26T14:15:57.602Z,100961.00
2023-04-26T14:18:26.863Z,100974.00
2023-04-26T14:20:54.654Z,100965.00
2023-04-26T14:23:22.567Z,100964.00
2023-04-26T14:25:52.743Z,100964.00
2023-04-26T14:28:20.827Z,100968.00
2023-04-26T14:30:48.630Z,100970.00
2023-04-26T14:33:16.728Z,100979.00
2023-04-26T14:35:46.284Z,100969.00
2023-04-26T14:38:14.324Z,100971.00
2023-04-26T14:40:42.268Z,100967.00
2023-04-26T14:43:10.124Z,100964.00
2023-04-26T14:48:12.684Z,100972.00
2023-04-26T14:50:40.614Z,100970.00
2023-04-26T14:53:10.370Z,100973.00
2023-04-26T14:55:39.273Z,100974.00
2023-04-26T14:58:07.049Z,100973.00
2023-04-26T15:00:34.774Z,100965.00
2023-04-26T15:03:02.771Z,100964.00
2023-04-26T15:05:30.821Z,100969.00
2023-04-26T15:07:58.548Z,100969.00
2023-04-26T15:10:28.004Z,100970.00
2023-04-26T15:12:56.398Z,100975.00
2023-04-26T15:15:24.217Z,100961.00
2023-04-26T15:17:52.755Z,100964.00
2023-04-26T15:20:20.908Z,100972.00
2023-04-26T15:22:48.924Z,100975.00
2023-04-26T15:25:16.644Z,100971.00
2023-04-26T15:27:47.078Z,100968.00
2023-04-26T15:30:15.092Z,100971.00
2023-04-26T15:32:43.127Z,100974.00
2023-04-26T15:35:13.698Z,100985.00
2023-04-26T15:37:41.492Z,100974.00
2023-04-26T15:40:10.672Z,100973.00
2023-04-26T15:42:39.014Z,100970.00
2023-04-26T15:45:09.533Z,100983.00
2023-04-26T15:47:37.983Z,100980.00
2023-04-26T15:50:07.779Z,100977.00
2023-04-26T15:52:38.610Z,100976.00
2023-04-26T15:55:08.648Z,100977.00
2023-04-26T15:57:36.842Z,100980.00
2023-04-26T16:00:06.035Z,100979.00
2023-04-26T16:02:35.301Z,100973.00
2023-04-26T16:05:04.278Z,100979.00
2023-04-26T16:07:32.598Z,100981.00
2023-04-26T16:10:00.684Z,100979.00
2023-04-26T16:12:28.543Z,100971.00
2023-04-26T16:14:56.334Z,100989.00
2023-04-26T16:17:24.665Z,100982.00
2023-04-26T16:19:53.707Z,100984.00
2023-04-26T16:22:21.564Z,100980.00
2023-04-26T16:24:49.303Z,100967.00
2023-04-26T16:27:17.093Z,100973.00
2023-04-26T16:29:45.687Z,100960.00
2023-04-26T16:32:13.364Z,100969.00
2023-04-26T16:34:41.133Z,100970.00
2023-04-26T16:37:10.215Z,100973.00
2023-04-26T16:39:38.488Z,100974.00
2023-04-26T16:42:06.440Z,100977.00
2023-04-26T16:44:34.276Z,100978.00
2023-04-26T16:47:02.228Z,100980.00
2023-04-26T16:49:30.041Z,100987.00
2023-04-26T16:51:58.920Z,100987.00
2023-04-26T16:54:28.531Z,100987.00
2023-04-26T16:56:56.243Z,100988.00
2023-04-26T16:59:23.952Z,100985.00
2023-04-26T17:01:52.136Z,100989.00
2023-04-26T17:04:20.104Z,100990.00
2023-04-26T17:06:47.997Z,100991.00
2023-04-26T17:09:15.911Z,100995.00
2023-04-26T17:11:45.050Z,100974.00
2023-04-26T17:14:12.874Z,101000.00
2023-04-26T17:16:40.699Z,100994.00
2023-04-26T17:19:08.478Z,101003.00
2023-04-26T17:21:36.681Z,100996.00
2023-04-26T17:24:05.587Z,100991.00
2023-04-26T17:26:33.314Z,100999.00
2023-04-26T17:29:02.581Z,100995.00
2023-04-26T17:31:30.460Z,100996.00
2023-04-26T17:33:58.188Z,101002.00
2023-04-26T17:36:26.688Z,101002.00
2023-04-26T17:38:54.685Z,101011.00
2023-04-26T17:41:23.739Z,101006.00
2023-04-26T17:43:51.790Z,101011.00
2023-04-26T17:46:20.945Z,101015.00
2023-04-26T17:48:48.810Z,101005.00
2023-04-26T17:51:16.577Z,101007.00
2023-04-26T17:53:44.284Z,101012.00
2023-04-26T17:56:12.221Z,101004.00
2023-04-26T17:58:40.179Z,101007.00
2023-04-26T18:01:08.065Z,101013.00
2023-04-26T18:03:37.329Z,101007.00
2023-04-26T18:06:05.737Z,101015.00
2023-04-26T18:08:33.536Z,101020.00
2023-04-26T18:11:01.199Z,101023.00
2023-04-26T18:13:29.105Z,101021.00
2023-04-26T18:15:57.172Z,101023.00
2023-04-26T18:18:27.795Z,101027.00
2023-04-26T18:20:57.269Z,101024.00
2023-04-26T18:23:25.282Z,101024.00
2023-04-26T18:25:56.201Z,101038.00
2023-04-26T18:28:23.877Z,101019.00
2023-04-26T18:30:56.837Z,101031.00
2023-04-26T18:33:25.701Z,101034.00
2023-04-26T18:35:53.682Z,101045.00
2023-04-26T18:38:23.134Z,101036.00
2023-04-26T18:40:51.412Z,101029.00
2023-04-26T18:43:19.907Z,101043.00
2023-04-26T18:45:48.058Z,101044.00
2023-04-26T18:48:15.824Z,101045.00
2023-04-26T18:50:51.152Z,101052.00
2023-04-26T18:53:19.385Z,101044.00
2023-04-26T18:55:49.234Z,101046.00
2023-04-26T18:58:16.985Z,101017.00
2023-04-26T19:00:44.723Z,101045.00
2023-04-26T19:03:12.851Z,101059.00
2023-04-26T19:05:42.509Z,101055.00
2023-04-26T19:08:10.542Z,101057.00
2023-04-26T19:10:38.398Z,101067.00
2023-04-26T19:13:07.701Z,101064.00
2023-04-26T19:15:36.376Z,101073.00
2023-04-26T19:18:04.223Z,101066.00
2023-04-26T19:20:32.736Z,101074.00
2023-04-26T19:23:00.461Z,101072.00
2023-04-26T19:25:30.336Z,101071.00
2023-04-26T19:27:58.238Z,101083.00
2023-04-26T19:30:27.447Z,101084.00
2023-04-26T19:32:55.512Z,101087.00
2023-04-26T19:35:23.263Z,101083.00
2023-04-26T19:37:51.159Z,101074.00
2023-04-26T19:40:18.967Z,101076.00
2023-04-26T19:42:46.773Z,101085.00
2023-04-26T19:45:14.698Z,101062.00
2023-04-26T19:47:44.076Z,101082.00
2023-04-26T19:50:12.790Z,101084.00
2023-04-26T19:52:40.621Z,101082.00
2023-04-26T19:55:10.401Z,101100.00
2023-04-26T19:57:38.607Z,101094.00
2023-04-26T20:00:10.269Z,101093.00
2023-04-26T20:02:38.312Z,101089.00
2023-04-26T20:05:09.290Z,101084.00
2023-04-26T20:07:37.155Z,101096.00
2023-04-26T20:10:05.349Z,101095.00
2023-04-26T20:12:34.456Z,101101.00
2023-04-26T20:15:02.490Z,101075.00
2023-04-26T20:17:30.347Z,101096.00
2023-04-26T20:19:58.179Z,101082.00
2023-04-26T20:22:27.685Z,101099.00
2023-04-26T20:24:55.386Z,101106.00
2023-04-26T20:27:23.152Z,101090.00
2023-04-26T20:29:50.998Z,101101.00
2023-04-26T20:32:19.384Z,101101.00
2023-04-26T20:34:47.595Z,101103.00
2023-04-26T20:37:15.495Z,101093.00
2023-04-26T20:39:44.812Z,101100.00
2023-04-26T20:42:12.763Z,101089.00
2023-04-26T20:44:40.545Z,101091.00
2023-04-26T20:47:09.034Z,101090.00
2023-04-26T20:49:36.889Z,101099.00
2023-04-26T20:52:05.163Z,101101.00
2023-04-26T20:54:33.362Z,101094.00
2023-04-26T20:57:04.026Z,101088.00
2023-04-26T20:59:33.950Z,101103.00
2023-04-26T21:02:02.928Z,101087.00
2023-04-26T21:04:30.948Z,101087.00
2023-04-26T21:06:58.853Z,101094.00
2023-04-26T21:09:26.677Z,101103.00
2023-04-26T21:11:54.477Z,101092.00
2023-04-26T21:14:23.578Z,101103.00
2023-04-26T21:16:51.270Z,101103.00
2023-04-26T21:19:19.023Z,101100.00
2023-04-26T21:21:46.908Z,101101.00
2023-04-26T21:24:14.736Z,101087.00
2023-04-26T21:26:42.540Z,101093.00
2023-04-26T21:29:10.448Z,101101.00
2023-04-26T21:31:39.686Z,101099.00
2023-04-26T21:34:07.461Z,101106.00
2023-04-26T21:36:35.134Z,101102.00
2023-04-26T21:39:03.510Z,101103.00
2023-04-26T21:41:31.358Z,101114.00
2023-04-26T21:43:59.073Z,101108.00
2023-04-26T21:46:27.761Z,101113.00
2023-04-26T21:48:56.872Z,101104.00
2023-04-26T21:51:24.686Z,101107.00
2023-04-26T21:53:52.419Z,101116.00
2023-04-26T21:56:20.181Z,101117.00
2023-04-26T21:58:47.890Z,101113.00
2023-04-26T22:01:16.633Z,101113.00
2023-04-26T22:03:44.598Z,101111.00
2023-04-26T22:06:13.855Z,101111.00
2023-04-26T22:08:41.891Z,101117.00
2023-04-26T22:11:09.647Z,101107.00
2023-04-26T22:13:37.394Z,101109.00
2023-04-26T22:16:06.101Z,101113.00
2023-04-26T22:18:35.047Z,101106.00
2023-04-26T22:21:02.705Z,101114.00
2023-04-26T22:23:32.022Z,101112.00
2023-04-26T22:26:00.642Z,101119.00
2023-04-26T22:28:28.471Z,101121.00
2023-04-26T22:30:56.226Z,101119.00
2023-04-26T22:33:23.925Z,101119.00
2023-04-26T22:35:51.809Z,101123.00
2023-04-26T22:38:19.520Z,101115.00
2023-04-26T22:40:48.552Z,101134.00
2023-04-26T22:43:16.883Z,101125.00
2023-04-26T22:45:44.804Z,101124.00
2023-04-26T22:48:12.754Z,101131.00
2023-04-26T22:50:40.595Z,101126.00
2023-04-26T22:53:09.144Z,101116.00
2023-04-26T22:55:36.904Z,101126.00
2023-04-26T22:58:06.039Z,101129.00
2023-04-26T23:00:33.708Z,101140.00
2023-04-26T23:03:01.493Z,101125.00
2023-04-26T23:05:29.346Z,101128.00
2023-04-26T23:07:57.104Z,101116.00
2023-04-26T23:10:25.057Z,101137.00
2023-04-26T23:12:52.963Z,101128.00
2023-04-26T23:15:22.495Z,101128.00
2023-04-26T23:17:50.468Z,101125.00
2023-04-26T23:20:18.465Z,101140.00
2023-04-26T23:22:46.256Z,101141.00
2023-04-26T23:25:14.074Z,101136.00
2023-04-26T23:27:42.010Z,101130.00
2023-04-26T23:30:10.768Z,101144.00
2023-04-26T23:32:39.976Z,101135.00
2023-04-26T23:35:08.735Z,101135.00
2023-04-26T23:37:36.477Z,101146.00
2023-04-26T23:40:06.035Z,101134.00
2023-04-26T23:42:33.775Z,101157.00
2023-04-26T23:45:01.768Z,101149.00
2023-04-26T23:47:30.081Z,101144.00
2023-04-26T23:49:59.446Z,101152.00
2023-04-26T23:52:27.576Z,101150.00
2023-04-26T23:54:55.271Z,101148.00
2023-04-26T23:57:23.031Z,101152.00
2023-04-26T23:59:52.577Z,101157.00
